CCGS Tanu — CGBY — position and weather

sailwx.info

Track history (hours):
 
Tides and Currents Weather Stations Pressure Air Temp Water Temp Dewpoint Dewpoint Depression Visibility Wind Speed Wind Dir Waves Ship Positions

CCGS Tanu (Canada)

Ship's website: http://www.ccg-gcc.gc.ca/vessels-navires/details_e.asp?id=M-5

Last reported at 2015-Jul-31 00:33 UTC. Time now 2015-Aug-02 10:14 UTC.
Position N 50°06' W 127°34'.

Length 54.5 m; beam 9.7 m; draft 3.7 m.

Type: SAR. MMSI: 316091000.

Date/timePositionNaut miles runAvg speedWind from/ knotsBaromVisibWave heightAir tempDewpointWater temp
2015-Jul-31 00:33N 50°06' W 127°34'10 9.7
2015-Jul-30 23:33N 50°02' W 127°48'3 2.8
2015-Jul-30 22:23N 50°03' W 127°53'  
2015-Jul-26 08:05N 51°10' W 127°60'22 0.5
2015-Jul-24 15:29N 51°31' W 127°51'24 1.4
2015-Jul-23 22:33N 51°07' W 127°47'1110.8
2015-Jul-23 21:33N 51°00' W 127°35'8 8.2
2015-Jul-23 20:33N 50°55' W 127°25'2 2.2
2015-Jul-23 19:28N 50°55' W 127°21'0 0.0
2015-Jul-23 18:28N 50°55' W 127°21'0 0.0
2015-Jul-23 17:28N 50°55' W 127°21'0 0.0
2015-Jul-23 16:28N 50°55' W 127°21'0 0.0
2015-Jul-23 13:16N 50°55' W 127°21'0 0.0
2015-Jul-23 12:16N 50°55' W 127°21'0 0.0
2015-Jul-23 11:28N 50°55' W 127°21'0 0.0
2015-Jul-23 10:28N 50°55' W 127°21'0 0.0
2015-Jul-23 09:28N 50°55' W 127°21'0 0.0
2015-Jul-23 08:28N 50°55' W 127°21'0 0.0
2015-Jul-23 07:28N 50°55' W 127°21'0 0.0
2015-Jul-23 06:25N 50°55' W 127°21'0 0.0
2015-Jul-23 05:31N 50°55' W 127°21'0 0.0
2015-Jul-23 04:33N 50°55' W 127°21'9 8.9
2015-Jul-23 03:33N 50°47' W 127°27'4 2.8
2015-Jul-23 02:07N 50°43' W 127°29'0 0.0
2015-Jul-23 01:31N 50°43' W 127°29'0 0.0
2015-Jul-22 18:07N 50°43' W 127°29'0 0.0
2015-Jul-22 17:31N 50°43' W 127°29'0 0.0
2015-Jul-22 16:31N 50°43' W 127°29'0 0.0
2015-Jul-22 15:31N 50°43' W 127°29'0 0.0
2015-Jul-22 14:31N 50°43' W 127°29'0 0.0
2015-Jul-22 13:31N 50°43' W 127°29'0 0.0
2015-Jul-22 12:31N 50°43' W 127°29'0 0.0
2015-Jul-22 11:19N 50°43' W 127°29'0 0.0
2015-Jul-22 08:25N 50°43' W 127°29'0 0.0
2015-Jul-22 07:25N 50°43' W 127°29'0 0.0
2015-Jul-22 06:25N 50°43' W 127°29'0 0.0
2015-Jul-22 05:31N 50°43' W 127°29'0 0.0
2015-Jul-22 02:19N 50°43' W 127°29'0 0.0
2015-Jul-22 00:31N 50°43' W 127°29'0 0.0
2015-Jul-21 23:31N 50°43' W 127°29'0 0.0
2015-Jul-21 21:31N 50°43' W 127°29'0 0.0
2015-Jul-21 20:25N 50°43' W 127°29'1 1.1
2015-Jul-21 19:33N 50°43' W 127°28'0 0.0
2015-Jul-21 16:30N 50°43' W 127°28'  
Track history (hours):
 
Tides and Currents Weather Stations Pressure Air Temp Water Temp Dewpoint Dewpoint Depression Visibility Wind Speed Wind Dir Waves Ship Positions

CCGS Tanu (Canada)

Ship's website: http://www.ccg-gcc.gc.ca/vessels-navires/details_e.asp?id=M-5

Last reported at 2015-Jul-31 00:33 UTC. Time now 2015-Aug-02 10:14 UTC.
Position N 50°06' W 127°34'.

Length 54.5 m; beam 9.7 m; draft 3.7 m.

Type: SAR. MMSI: 316091000.

Date/timePositionNaut miles runAvg speedWind from/ knotsBaromVisibWave heightAir tempDewpointWater temp
2015-Jul-31 00:33N 50°06' W 127°34'10 9.7
2015-Jul-30 23:33N 50°02' W 127°48'3 2.8
2015-Jul-30 22:23N 50°03' W 127°53'  
2015-Jul-26 08:05N 51°10' W 127°60'22 0.5
2015-Jul-24 15:29N 51°31' W 127°51'24 1.4
2015-Jul-23 22:33N 51°07' W 127°47'1110.8
2015-Jul-23 21:33N 51°00' W 127°35'8 8.2
2015-Jul-23 20:33N 50°55' W 127°25'2 2.2
2015-Jul-23 19:28N 50°55' W 127°21'0 0.0
2015-Jul-23 18:28N 50°55' W 127°21'0 0.0
2015-Jul-23 17:28N 50°55' W 127°21'0 0.0
2015-Jul-23 16:28N 50°55' W 127°21'0 0.0
2015-Jul-23 13:16N 50°55' W 127°21'0 0.0
2015-Jul-23 12:16N 50°55' W 127°21'0 0.0
2015-Jul-23 11:28N 50°55' W 127°21'0 0.0
2015-Jul-23 10:28N 50°55' W 127°21'0 0.0
2015-Jul-23 09:28N 50°55' W 127°21'0 0.0
2015-Jul-23 08:28N 50°55' W 127°21'0 0.0
2015-Jul-23 07:28N 50°55' W 127°21'0 0.0
2015-Jul-23 06:25N 50°55' W 127°21'0 0.0
2015-Jul-23 05:31N 50°55' W 127°21'0 0.0
2015-Jul-23 04:33N 50°55' W 127°21'9 8.9
2015-Jul-23 03:33N 50°47' W 127°27'4 2.8
2015-Jul-23 02:07N 50°43' W 127°29'0 0.0
2015-Jul-23 01:31N 50°43' W 127°29'0 0.0
2015-Jul-22 18:07N 50°43' W 127°29'0 0.0
2015-Jul-22 17:31N 50°43' W 127°29'0 0.0
2015-Jul-22 16:31N 50°43' W 127°29'0 0.0
2015-Jul-22 15:31N 50°43' W 127°29'0 0.0
2015-Jul-22 14:31N 50°43' W 127°29'0 0.0
2015-Jul-22 13:31N 50°43' W 127°29'0 0.0
2015-Jul-22 12:31N 50°43' W 127°29'0 0.0
2015-Jul-22 11:19N 50°43' W 127°29'0 0.0
2015-Jul-22 08:25N 50°43' W 127°29'0 0.0
2015-Jul-22 07:25N 50°43' W 127°29'0 0.0
2015-Jul-22 06:25N 50°43' W 127°29'0 0.0
2015-Jul-22 05:31N 50°43' W 127°29'0 0.0
2015-Jul-22 02:19N 50°43' W 127°29'0 0.0
2015-Jul-22 00:31N 50°43' W 127°29'0 0.0
2015-Jul-21 23:31N 50°43' W 127°29'0 0.0
2015-Jul-21 21:31N 50°43' W 127°29'0 0.0
2015-Jul-21 20:25N 50°43' W 127°29'1 1.1
2015-Jul-21 19:33N 50°43' W 127°28'0 0.0
2015-Jul-21 16:30N 50°43' W 127°28'  

Dump ship's entire track history